Thursday, August 21, 2014
20:07 UTC
  |  Log In   |  Register Free
Airport Search:

Williamsburg-Jamestown Airport
(KJGG)

Williamsburg-Jamestown Airport Diagram
No Airport Diagram Available

FAA data valid effective July 24, 2014 until September 18, 2014 (unless otherwise noted).

 
 
 
 
 
 
 
 
 
 
 
 
 
 

Current Aviation Weather for Williamsburg-Jamestown Airport (KJGG)

The most recent METAR observation for KJGG was updated at: 1835 UTC
METAR Summary (Translated METAR)
KJGG
281835Z AUTO 28012G20KT 10SM SCT055 32/18 A2972 RMK AO1
KFAF
(8.2 nm SE from KJGG)
281758Z AUTO 28011KT 10SM FEW060 SCT090 29/18 A2969 RMK AO2 SLP057 T02910184 10306 20265 50003 $
TAF Summary (Translated TAF)
KFAF
(8.2 nm SE from KJGG)
2118/2224 VRB06KT 9999 FEW030 QNH3000INS BECMG 2118/2119 20009KT 8000 -SHRA SCT010 OVC030 QNH2995INS TEMPO 2120/2124 30015G25KT 4800 -TSRA OVC015CB BECMG 2205/2206 VRB06KT 9999 NSW SCT050 BKN100 QNH2991INS BECMG 2219/2220 09009KT 6000 -SHRA BKN020 OVC050 QNH2990INS TEMPO 2222/2223 29015G25KT 4800 -TSRA OVC020CB TX31/2120Z TN22/2209Z LAST NO AMDS AFT 2203 NEXT 2210
KPHF
(12.5 nm SE from KJGG)
211730Z 2118/2218 15004KT P6SM SCT050 FM212000 12005KT P6SM BKN040 FM220200 24004KT P6SM BKN100 FM221400 27004KT P6SM SCT050 BKN100
  Airport Weather Conditions for KJGG

 Current Weather at JGG
91° F
Partly Cloudy
South winds at 4.6 mph
JGG NOAA Radar

Pressure: 30.03 in
Humidity: 56%
Wind: South at 4.6 MPH (4 KT)
Dew Point: 73.4°F
Visibility: 10.00 mi


Airport Weather Forecast for KJGG

Translated METAR and TAF for KJGG
Translated METAR for KJGG (2001 UTC 21 August 2014)
found at http://aviationweather.gov/adds/metars/
 
METAR text: KJGG 211955Z AUTO 00000KT 10SM CLR 32/24 A3001 RMK AO1
Conditions at: KJGG (WILLIAMSBURG , VA, US) observed 1955 UTC 21 August 2014
Temperature: 32.0°C (90°F)
Dewpoint: 24.0°C (75°F) [RH = 63%]
Pressure (altimeter): 30.01 inches Hg (1016.3 mb)
Winds: calm
Visibility: 10 or more miles (16+ km)
Ceiling: at least 12,000 feet AGL
Clouds: sky clear below 12,000 feet AGL
Weather: automated observation with no human augmentation;
there may or may not be significant weather present at this time
Translated TAF for KJGG

There is no translated TAF available for this airport

Find All Airport Services Find A Hotel Find A Rental Car Find A Golf Course Find A Restaurant $100 Hamburger



FBO's on the Field
FBO Company Facility Photos Services Transportation Aviation Fuel Prices: Prices include tax
Catering Weather Repair Courtesy Rental Type 100LL JetA JetA+ MOGAS 8087
 
Williamsburg-Jamestown

This FBO has not yet been rated
FS:Shell
Last Updated: Aug-08
Login to update fuel prices
SS:
Contact Williamsburg-JamestownMore FBO Information
 
Add another FBO Facility Photos Catering Weather Repair Courtesy Rental Type 100LL JetA JetA+ MOGAS 8087
Services Transportation Aviation Fuel Prices: Prices include tax


GlobalAir.com Airport Resource Center model-print
model-print
model-print
model-print